sensor_id;sensor_type;location;lat;lon;timestamp;P1;durP1;ratioP1;P2;durP2;ratioP2
6785;SDS011;3430;51.192;6.048;2024-02-21T00:01:17;12.57;;;8.20;;
6785;SDS011;3430;51.192;6.048;2024-02-21T00:03:48;12.23;;;7.70;;
6785;SDS011;3430;51.192;6.048;2024-02-21T00:06:13;11.30;;;7.70;;
6785;SDS011;3430;51.192;6.048;2024-02-21T00:08:44;9.40;;;7.03;;
6785;SDS011;3430;51.192;6.048;2024-02-21T00:11:09;12.47;;;7.03;;
6785;SDS011;3430;51.192;6.048;2024-02-21T00:13:35;10.83;;;7.97;;
6785;SDS011;3430;51.192;6.048;2024-02-21T00:16:00;12.67;;;8.10;;
6785;SDS011;3430;51.192;6.048;2024-02-21T00:18:26;12.87;;;7.40;;
6785;SDS011;3430;51.192;6.048;2024-02-21T00:20:55;10.53;;;7.47;;
6785;SDS011;3430;51.192;6.048;2024-02-21T00:23:21;10.77;;;8.10;;
6785;SDS011;3430;51.192;6.048;2024-02-21T00:25:49;15.93;;;8.20;;
6785;SDS011;3430;51.192;6.048;2024-02-21T00:28:14;10.73;;;7.17;;
6785;SDS011;3430;51.192;6.048;2024-02-21T00:30:40;10.40;;;7.87;;
6785;SDS011;3430;51.192;6.048;2024-02-21T00:33:05;10.60;;;7.97;;
6785;SDS011;3430;51.192;6.048;2024-02-21T00:35:31;11.37;;;7.83;;
6785;SDS011;3430;51.192;6.048;2024-02-21T00:37:56;11.67;;;7.97;;
6785;SDS011;3430;51.192;6.048;2024-02-21T00:40:22;11.63;;;8.37;;
6785;SDS011;3430;51.192;6.048;2024-02-21T00:42:48;16.83;;;7.97;;
6785;SDS011;3430;51.192;6.048;2024-02-21T00:45:13;11.97;;;7.53;;
6785;SDS011;3430;51.192;6.048;2024-02-21T00:47:38;11.50;;;8.17;;
6785;SDS011;3430;51.192;6.048;2024-02-21T00:50:04;10.70;;;7.63;;
6785;SDS011;3430;51.192;6.048;2024-02-21T00:52:32;9.63;;;7.70;;
6785;SDS011;3430;51.192;6.048;2024-02-21T00:54:58;14.87;;;8.53;;
6785;SDS011;3430;51.192;6.048;2024-02-21T00:57:24;12.47;;;7.33;;
6785;SDS011;3430;51.192;6.048;2024-02-21T00:59:49;9.57;;;7.60;;
6785;SDS011;3430;51.192;6.048;2024-02-21T01:02:14;13.27;;;8.03;;
6785;SDS011;3430;51.192;6.048;2024-02-21T01:04:40;12.43;;;7.77;;
6785;SDS011;3430;51.192;6.048;2024-02-21T01:07:05;11.20;;;7.83;;
6785;SDS011;3430;51.192;6.048;2024-02-21T01:09:30;14.50;;;8.80;;
6785;SDS011;3430;51.192;6.048;2024-02-21T01:11:56;10.60;;;7.87;;
6785;SDS011;3430;51.192;6.048;2024-02-21T01:14:21;12.93;;;7.43;;
6785;SDS011;3430;51.192;6.048;2024-02-21T01:16:46;11.13;;;7.40;;
6785;SDS011;3430;51.192;6.048;2024-02-21T01:19:12;11.57;;;7.53;;
6785;SDS011;3430;51.192;6.048;2024-02-21T01:21:37;15.17;;;8.67;;
6785;SDS011;3430;51.192;6.048;2024-02-21T01:24:02;10.17;;;7.50;;
6785;SDS011;3430;51.192;6.048;2024-02-21T01:26:28;10.20;;;7.60;;
6785;SDS011;3430;51.192;6.048;2024-02-21T01:28:53;11.33;;;7.87;;
6785;SDS011;3430;51.192;6.048;2024-02-21T01:31:18;11.73;;;8.00;;
6785;SDS011;3430;51.192;6.048;2024-02-21T01:33:44;12.90;;;6.97;;
6785;SDS011;3430;51.192;6.048;2024-02-21T01:36:09;13.70;;;7.77;;
6785;SDS011;3430;51.192;6.048;2024-02-21T01:38:34;13.20;;;7.77;;
6785;SDS011;3430;51.192;6.048;2024-02-21T01:41:00;11.00;;;7.17;;
6785;SDS011;3430;51.192;6.048;2024-02-21T01:43:25;11.50;;;7.93;;
6785;SDS011;3430;51.192;6.048;2024-02-21T01:45:55;10.83;;;7.87;;
6785;SDS011;3430;51.192;6.048;2024-02-21T01:48:21;13.70;;;7.77;;
6785;SDS011;3430;51.192;6.048;2024-02-21T01:50:47;10.33;;;7.43;;
6785;SDS011;3430;51.192;6.048;2024-02-21T01:53:14;11.30;;;8.13;;
6785;SDS011;3430;51.192;6.048;2024-02-21T01:55:44;10.70;;;7.73;;
6785;SDS011;3430;51.192;6.048;2024-02-21T01:58:09;11.87;;;7.70;;
6785;SDS011;3430;51.192;6.048;2024-02-21T02:00:35;11.13;;;7.07;;
6785;SDS011;3430;51.192;6.048;2024-02-21T02:03:01;11.53;;;7.80;;
6785;SDS011;3430;51.192;6.048;2024-02-21T02:05:27;13.00;;;8.00;;
6785;SDS011;3430;51.192;6.048;2024-02-21T02:07:52;10.67;;;7.27;;
6785;SDS011;3430;51.192;6.048;2024-02-21T02:10:18;8.53;;;7.20;;
6785;SDS011;3430;51.192;6.048;2024-02-21T02:12:43;12.43;;;7.00;;
6785;SDS011;3430;51.192;6.048;2024-02-21T02:15:08;12.20;;;7.53;;
6785;SDS011;3430;51.192;6.048;2024-02-21T02:17:34;12.47;;;8.07;;
6785;SDS011;3430;51.192;6.048;2024-02-21T02:19:59;10.43;;;6.93;;
6785;SDS011;3430;51.192;6.048;2024-02-21T02:22:28;12.57;;;8.20;;
6785;SDS011;3430;51.192;6.048;2024-02-21T02:24:53;11.20;;;6.93;;
6785;SDS011;3430;51.192;6.048;2024-02-21T02:27:19;11.20;;;7.40;;
6785;SDS011;3430;51.192;6.048;2024-02-21T02:29:44;10.73;;;7.30;;
6785;SDS011;3430;51.192;6.048;2024-02-21T02:32:10;9.13;;;7.60;;
6785;SDS011;3430;51.192;6.048;2024-02-21T02:34:35;8.80;;;7.80;;
6785;SDS011;3430;51.192;6.048;2024-02-21T02:37:00;11.27;;;7.23;;
6785;SDS011;3430;51.192;6.048;2024-02-21T02:39:26;9.70;;;7.43;;
6785;SDS011;3430;51.192;6.048;2024-02-21T02:41:51;10.97;;;7.73;;
6785;SDS011;3430;51.192;6.048;2024-02-21T02:44:16;8.60;;;6.83;;
6785;SDS011;3430;51.192;6.048;2024-02-21T02:46:42;11.87;;;7.47;;
6785;SDS011;3430;51.192;6.048;2024-02-21T02:49:08;10.93;;;7.53;;
6785;SDS011;3430;51.192;6.048;2024-02-21T02:51:33;11.93;;;7.73;;
6785;SDS011;3430;51.192;6.048;2024-02-21T02:53:58;13.20;;;7.20;;
6785;SDS011;3430;51.192;6.048;2024-02-21T02:56:24;11.33;;;7.43;;
6785;SDS011;3430;51.192;6.048;2024-02-21T02:58:49;10.13;;;7.60;;
6785;SDS011;3430;51.192;6.048;2024-02-21T03:01:15;12.93;;;7.90;;
6785;SDS011;3430;51.192;6.048;2024-02-21T03:03:40;9.93;;;7.00;;
6785;SDS011;3430;51.192;6.048;2024-02-21T03:06:05;12.17;;;7.30;;
6785;SDS011;3430;51.192;6.048;2024-02-21T03:08:31;12.00;;;7.70;;
6785;SDS011;3430;51.192;6.048;2024-02-21T03:10:58;11.70;;;7.87;;
6785;SDS011;3430;51.192;6.048;2024-02-21T03:13:24;12.63;;;8.03;;
6785;SDS011;3430;51.192;6.048;2024-02-21T03:15:49;9.87;;;6.87;;
6785;SDS011;3430;51.192;6.048;2024-02-21T03:18:15;10.23;;;7.73;;
6785;SDS011;3430;51.192;6.048;2024-02-21T03:20:40;13.37;;;8.40;;
6785;SDS011;3430;51.192;6.048;2024-02-21T03:23:05;10.57;;;7.40;;
6785;SDS011;3430;51.192;6.048;2024-02-21T03:25:30;13.70;;;8.30;;
6785;SDS011;3430;51.192;6.048;2024-02-21T03:27:56;12.03;;;7.37;;
6785;SDS011;3430;51.192;6.048;2024-02-21T03:30:21;10.83;;;7.40;;
6785;SDS011;3430;51.192;6.048;2024-02-21T03:32:46;10.70;;;8.10;;
6785;SDS011;3430;51.192;6.048;2024-02-21T03:35:15;11.27;;;7.17;;
6785;SDS011;3430;51.192;6.048;2024-02-21T03:37:40;11.33;;;7.60;;
6785;SDS011;3430;51.192;6.048;2024-02-21T03:40:08;11.80;;;7.10;;
6785;SDS011;3430;51.192;6.048;2024-02-21T03:42:34;8.60;;;6.80;;
6785;SDS011;3430;51.192;6.048;2024-02-21T03:44:59;10.17;;;7.13;;
6785;SDS011;3430;51.192;6.048;2024-02-21T03:47:25;9.60;;;7.30;;
6785;SDS011;3430;51.192;6.048;2024-02-21T03:49:50;10.13;;;7.70;;
6785;SDS011;3430;51.192;6.048;2024-02-21T03:52:15;13.37;;;7.13;;
6785;SDS011;3430;51.192;6.048;2024-02-21T03:54:42;10.67;;;7.50;;
6785;SDS011;3430;51.192;6.048;2024-02-21T03:57:07;9.80;;;7.23;;
6785;SDS011;3430;51.192;6.048;2024-02-21T03:59:32;13.73;;;7.20;;
6785;SDS011;3430;51.192;6.048;2024-02-21T04:01:58;10.97;;;7.43;;
6785;SDS011;3430;51.192;6.048;2024-02-21T04:04:24;11.90;;;7.70;;
6785;SDS011;3430;51.192;6.048;2024-02-21T04:06:49;10.07;;;6.57;;
6785;SDS011;3430;51.192;6.048;2024-02-21T04:09:14;10.17;;;7.10;;
6785;SDS011;3430;51.192;6.048;2024-02-21T04:11:43;10.87;;;6.73;;
6785;SDS011;3430;51.192;6.048;2024-02-21T04:14:08;11.47;;;6.97;;
6785;SDS011;3430;51.192;6.048;2024-02-21T04:16:34;12.10;;;7.70;;
6785;SDS011;3430;51.192;6.048;2024-02-21T04:18:59;7.97;;;6.07;;
6785;SDS011;3430;51.192;6.048;2024-02-21T04:21:24;11.93;;;7.03;;
6785;SDS011;3430;51.192;6.048;2024-02-21T04:23:50;11.53;;;7.43;;
6785;SDS011;3430;51.192;6.048;2024-02-21T04:26:15;7.60;;;6.07;;
6785;SDS011;3430;51.192;6.048;2024-02-21T04:28:41;9.83;;;6.50;;
6785;SDS011;3430;51.192;6.048;2024-02-21T04:31:06;11.73;;;6.93;;
6785;SDS011;3430;51.192;6.048;2024-02-21T04:33:32;10.73;;;7.00;;
6785;SDS011;3430;51.192;6.048;2024-02-21T04:35:57;8.87;;;6.83;;
6785;SDS011;3430;51.192;6.048;2024-02-21T04:38:23;8.97;;;5.97;;
6785;SDS011;3430;51.192;6.048;2024-02-21T04:40:49;10.37;;;7.30;;
6785;SDS011;3430;51.192;6.048;2024-02-21T04:43:14;9.60;;;6.60;;
6785;SDS011;3430;51.192;6.048;2024-02-21T04:45:39;9.93;;;7.20;;
6785;SDS011;3430;51.192;6.048;2024-02-21T04:48:05;11.10;;;7.03;;
6785;SDS011;3430;51.192;6.048;2024-02-21T04:50:30;8.27;;;6.60;;
6785;SDS011;3430;51.192;6.048;2024-02-21T04:52:55;10.43;;;6.57;;
6785;SDS011;3430;51.192;6.048;2024-02-21T04:55:21;11.50;;;6.57;;
6785;SDS011;3430;51.192;6.048;2024-02-21T04:57:46;9.60;;;7.07;;
6785;SDS011;3430;51.192;6.048;2024-02-21T05:00:12;10.30;;;7.30;;
6785;SDS011;3430;51.192;6.048;2024-02-21T05:02:37;12.50;;;6.77;;
6785;SDS011;3430;51.192;6.048;2024-02-21T05:05:03;8.20;;;6.83;;
6785;SDS011;3430;51.192;6.048;2024-02-21T05:07:28;8.43;;;6.73;;
6785;SDS011;3430;51.192;6.048;2024-02-21T05:09:54;9.13;;;6.77;;
6785;SDS011;3430;51.192;6.048;2024-02-21T05:12:19;8.10;;;6.03;;
6785;SDS011;3430;51.192;6.048;2024-02-21T05:14:45;11.63;;;6.50;;
6785;SDS011;3430;51.192;6.048;2024-02-21T05:17:10;13.00;;;6.80;;
6785;SDS011;3430;51.192;6.048;2024-02-21T05:19:36;12.10;;;7.03;;
6785;SDS011;3430;51.192;6.048;2024-02-21T05:22:01;11.97;;;7.63;;
6785;SDS011;3430;51.192;6.048;2024-02-21T05:24:26;10.00;;;6.63;;
6785;SDS011;3430;51.192;6.048;2024-02-21T05:26:53;10.13;;;6.73;;
6785;SDS011;3430;51.192;6.048;2024-02-21T05:29:18;10.00;;;6.53;;
6785;SDS011;3430;51.192;6.048;2024-02-21T05:34:19;8.13;;;6.37;;
6785;SDS011;3430;51.192;6.048;2024-02-21T05:36:44;11.30;;;7.13;;
6785;SDS011;3430;51.192;6.048;2024-02-21T05:39:11;9.93;;;6.70;;
6785;SDS011;3430;51.192;6.048;2024-02-21T05:41:36;11.20;;;6.67;;
6785;SDS011;3430;51.192;6.048;2024-02-21T05:44:01;9.90;;;6.57;;
6785;SDS011;3430;51.192;6.048;2024-02-21T05:46:27;8.90;;;6.47;;
6785;SDS011;3430;51.192;6.048;2024-02-21T05:48:53;10.37;;;6.77;;
6785;SDS011;3430;51.192;6.048;2024-02-21T05:51:18;10.87;;;6.63;;
6785;SDS011;3430;51.192;6.048;2024-02-21T05:53:44;9.87;;;6.00;;
6785;SDS011;3430;51.192;6.048;2024-02-21T05:56:15;6.73;;;5.80;;
6785;SDS011;3430;51.192;6.048;2024-02-21T05:58:42;9.27;;;7.40;;
6785;SDS011;3430;51.192;6.048;2024-02-21T06:01:08;10.73;;;7.10;;
6785;SDS011;3430;51.192;6.048;2024-02-21T06:03:33;8.63;;;6.10;;
6785;SDS011;3430;51.192;6.048;2024-02-21T06:05:59;10.03;;;5.90;;
6785;SDS011;3430;51.192;6.048;2024-02-21T06:08:24;13.30;;;6.80;;
6785;SDS011;3430;51.192;6.048;2024-02-21T06:10:49;10.97;;;6.87;;
6785;SDS011;3430;51.192;6.048;2024-02-21T06:13:19;9.33;;;6.57;;
6785;SDS011;3430;51.192;6.048;2024-02-21T06:15:46;9.13;;;6.60;;
6785;SDS011;3430;51.192;6.048;2024-02-21T06:18:11;10.03;;;6.60;;
6785;SDS011;3430;51.192;6.048;2024-02-21T06:20:37;9.20;;;6.63;;
6785;SDS011;3430;51.192;6.048;2024-02-21T06:23:05;10.00;;;6.43;;
6785;SDS011;3430;51.192;6.048;2024-02-21T06:25:30;10.33;;;6.03;;
6785;SDS011;3430;51.192;6.048;2024-02-21T06:27:56;11.73;;;6.63;;
6785;SDS011;3430;51.192;6.048;2024-02-21T06:30:21;10.00;;;6.57;;
6785;SDS011;3430;51.192;6.048;2024-02-21T06:32:46;7.73;;;5.70;;
6785;SDS011;3430;51.192;6.048;2024-02-21T06:35:12;9.50;;;6.13;;
6785;SDS011;3430;51.192;6.048;2024-02-21T06:37:37;8.53;;;6.13;;
6785;SDS011;3430;51.192;6.048;2024-02-21T06:40:03;8.73;;;6.40;;
6785;SDS011;3430;51.192;6.048;2024-02-21T06:42:29;12.90;;;6.03;;
6785;SDS011;3430;51.192;6.048;2024-02-21T06:44:54;7.00;;;6.20;;
6785;SDS011;3430;51.192;6.048;2024-02-21T06:47:21;7.70;;;5.90;;
6785;SDS011;3430;51.192;6.048;2024-02-21T06:49:50;10.83;;;5.83;;
6785;SDS011;3430;51.192;6.048;2024-02-21T06:52:17;8.63;;;6.63;;
6785;SDS011;3430;51.192;6.048;2024-02-21T06:54:42;8.03;;;6.50;;
6785;SDS011;3430;51.192;6.048;2024-02-21T06:57:08;7.23;;;5.93;;
6785;SDS011;3430;51.192;6.048;2024-02-21T06:59:33;7.70;;;6.40;;
6785;SDS011;3430;51.192;6.048;2024-02-21T07:01:59;8.77;;;5.63;;
6785;SDS011;3430;51.192;6.048;2024-02-21T07:04:25;6.77;;;5.90;;
6785;SDS011;3430;51.192;6.048;2024-02-21T07:06:52;9.33;;;5.90;;
6785;SDS011;3430;51.192;6.048;2024-02-21T07:09:17;8.43;;;5.97;;
6785;SDS011;3430;51.192;6.048;2024-02-21T07:11:42;7.10;;;6.40;;
6785;SDS011;3430;51.192;6.048;2024-02-21T07:14:10;8.23;;;5.87;;
6785;SDS011;3430;51.192;6.048;2024-02-21T07:16:35;7.90;;;5.63;;
6785;SDS011;3430;51.192;6.048;2024-02-21T07:19:03;9.63;;;6.53;;
6785;SDS011;3430;51.192;6.048;2024-02-21T07:21:28;9.17;;;5.87;;
6785;SDS011;3430;51.192;6.048;2024-02-21T07:23:54;7.03;;;5.47;;
6785;SDS011;3430;51.192;6.048;2024-02-21T07:26:19;7.67;;;5.60;;
6785;SDS011;3430;51.192;6.048;2024-02-21T07:28:44;6.30;;;5.60;;
6785;SDS011;3430;51.192;6.048;2024-02-21T07:31:11;7.70;;;5.90;;
6785;SDS011;3430;51.192;6.048;2024-02-21T07:33:36;6.87;;;5.87;;
6785;SDS011;3430;51.192;6.048;2024-02-21T07:36:05;8.00;;;5.90;;
6785;SDS011;3430;51.192;6.048;2024-02-21T07:38:30;8.50;;;6.47;;
6785;SDS011;3430;51.192;6.048;2024-02-21T07:40:55;13.57;;;6.20;;
6785;SDS011;3430;51.192;6.048;2024-02-21T07:43:21;8.43;;;5.70;;
6785;SDS011;3430;51.192;6.048;2024-02-21T07:45:47;8.90;;;5.83;;
6785;SDS011;3430;51.192;6.048;2024-02-21T07:48:12;6.33;;;5.43;;
6785;SDS011;3430;51.192;6.048;2024-02-21T07:50:38;6.83;;;5.60;;
6785;SDS011;3430;51.192;6.048;2024-02-21T07:53:03;10.33;;;6.13;;
6785;SDS011;3430;51.192;6.048;2024-02-21T07:55:28;12.10;;;6.07;;
6785;SDS011;3430;51.192;6.048;2024-02-21T07:57:54;7.60;;;5.10;;
6785;SDS011;3430;51.192;6.048;2024-02-21T08:00:23;9.50;;;6.17;;
6785;SDS011;3430;51.192;6.048;2024-02-21T08:02:48;8.93;;;6.00;;
6785;SDS011;3430;51.192;6.048;2024-02-21T08:05:14;7.70;;;5.20;;
6785;SDS011;3430;51.192;6.048;2024-02-21T08:07:39;7.40;;;5.73;;
6785;SDS011;3430;51.192;6.048;2024-02-21T08:10:04;7.67;;;6.07;;
6785;SDS011;3430;51.192;6.048;2024-02-21T08:12:32;7.10;;;5.57;;
6785;SDS011;3430;51.192;6.048;2024-02-21T08:14:58;8.27;;;5.27;;
6785;SDS011;3430;51.192;6.048;2024-02-21T08:17:23;9.97;;;5.43;;
6785;SDS011;3430;51.192;6.048;2024-02-21T08:19:51;8.37;;;5.60;;
6785;SDS011;3430;51.192;6.048;2024-02-21T08:22:17;10.23;;;5.50;;
6785;SDS011;3430;51.192;6.048;2024-02-21T08:24:45;11.63;;;5.93;;
6785;SDS011;3430;51.192;6.048;2024-02-21T08:27:13;11.13;;;5.80;;
6785;SDS011;3430;51.192;6.048;2024-02-21T08:29:39;10.47;;;5.73;;
6785;SDS011;3430;51.192;6.048;2024-02-21T08:32:04;8.53;;;5.80;;
6785;SDS011;3430;51.192;6.048;2024-02-21T08:34:29;7.80;;;5.57;;
6785;SDS011;3430;51.192;6.048;2024-02-21T08:36:59;6.47;;;5.20;;
6785;SDS011;3430;51.192;6.048;2024-02-21T08:39:24;10.70;;;6.63;;
6785;SDS011;3430;51.192;6.048;2024-02-21T08:41:49;8.70;;;5.50;;
6785;SDS011;3430;51.192;6.048;2024-02-21T08:44:16;6.43;;;5.70;;
6785;SDS011;3430;51.192;6.048;2024-02-21T08:46:41;10.83;;;5.80;;
6785;SDS011;3430;51.192;6.048;2024-02-21T08:49:07;9.33;;;5.17;;
6785;SDS011;3430;51.192;6.048;2024-02-21T08:51:33;7.50;;;5.60;;
6785;SDS011;3430;51.192;6.048;2024-02-21T08:53:58;7.63;;;5.50;;
6785;SDS011;3430;51.192;6.048;2024-02-21T08:56:23;8.00;;;5.30;;
6785;SDS011;3430;51.192;6.048;2024-02-21T08:58:49;15.20;;;5.93;;
6785;SDS011;3430;51.192;6.048;2024-02-21T09:01:17;10.33;;;6.00;;
6785;SDS011;3430;51.192;6.048;2024-02-21T09:03:42;10.30;;;5.30;;
6785;SDS011;3430;51.192;6.048;2024-02-21T09:06:10;7.63;;;5.80;;
6785;SDS011;3430;51.192;6.048;2024-02-21T09:08:38;6.47;;;5.40;;
6785;SDS011;3430;51.192;6.048;2024-02-21T09:11:05;9.57;;;6.07;;
6785;SDS011;3430;51.192;6.048;2024-02-21T09:13:31;9.47;;;6.17;;
6785;SDS011;3430;51.192;6.048;2024-02-21T09:15:56;9.30;;;6.00;;
6785;SDS011;3430;51.192;6.048;2024-02-21T09:18:21;7.17;;;5.23;;
6785;SDS011;3430;51.192;6.048;2024-02-21T09:20:47;10.43;;;5.53;;
6785;SDS011;3430;51.192;6.048;2024-02-21T09:23:13;8.30;;;5.30;;
6785;SDS011;3430;51.192;6.048;2024-02-21T09:25:38;13.77;;;6.17;;
6785;SDS011;3430;51.192;6.048;2024-02-21T09:28:05;10.57;;;6.00;;
6785;SDS011;3430;51.192;6.048;2024-02-21T09:30:31;12.70;;;5.57;;
6785;SDS011;3430;51.192;6.048;2024-02-21T09:32:56;7.80;;;5.53;;
6785;SDS011;3430;51.192;6.048;2024-02-21T09:35:24;11.77;;;5.20;;
6785;SDS011;3430;51.192;6.048;2024-02-21T09:37:52;18.87;;;6.40;;
6785;SDS011;3430;51.192;6.048;2024-02-21T09:40:17;10.93;;;5.60;;
6785;SDS011;3430;51.192;6.048;2024-02-21T09:42:42;9.13;;;5.60;;
6785;SDS011;3430;51.192;6.048;2024-02-21T09:45:19;8.00;;;5.33;;
6785;SDS011;3430;51.192;6.048;2024-02-21T09:50:11;13.40;;;5.87;;
6785;SDS011;3430;51.192;6.048;2024-02-21T09:52:36;8.67;;;5.37;;
6785;SDS011;3430;51.192;6.048;2024-02-21T09:55:02;8.97;;;5.63;;
6785;SDS011;3430;51.192;6.048;2024-02-21T09:57:30;8.70;;;5.13;;
6785;SDS011;3430;51.192;6.048;2024-02-21T09:59:56;8.20;;;5.70;;
6785;SDS011;3430;51.192;6.048;2024-02-21T10:02:22;6.97;;;5.60;;
6785;SDS011;3430;51.192;6.048;2024-02-21T10:04:47;7.90;;;5.30;;
6785;SDS011;3430;51.192;6.048;2024-02-21T10:07:13;9.53;;;5.77;;
6785;SDS011;3430;51.192;6.048;2024-02-21T10:09:38;9.80;;;5.63;;
6785;SDS011;3430;51.192;6.048;2024-02-21T10:12:09;8.50;;;5.00;;
6785;SDS011;3430;51.192;6.048;2024-02-21T10:14:40;13.67;;;5.70;;
6785;SDS011;3430;51.192;6.048;2024-02-21T10:17:06;11.73;;;6.53;;
6785;SDS011;3430;51.192;6.048;2024-02-21T10:19:34;8.87;;;5.30;;
6785;SDS011;3430;51.192;6.048;2024-02-21T10:22:06;8.80;;;5.80;;
6785;SDS011;3430;51.192;6.048;2024-02-21T10:24:33;5.83;;;4.90;;
6785;SDS011;3430;51.192;6.048;2024-02-21T10:27:02;10.33;;;5.83;;
6785;SDS011;3430;51.192;6.048;2024-02-21T10:29:29;9.50;;;6.20;;
6785;SDS011;3430;51.192;6.048;2024-02-21T10:32:03;7.67;;;5.10;;
6785;SDS011;3430;51.192;6.048;2024-02-21T10:34:32;8.50;;;5.03;;
6785;SDS011;3430;51.192;6.048;2024-02-21T10:37:07;8.87;;;6.60;;
6785;SDS011;3430;51.192;6.048;2024-02-21T10:39:33;10.93;;;5.23;;
6785;SDS011;3430;51.192;6.048;2024-02-21T10:42:02;10.03;;;5.00;;
6785;SDS011;3430;51.192;6.048;2024-02-21T10:44:32;6.70;;;5.03;;
6785;SDS011;3430;51.192;6.048;2024-02-21T10:46:57;8.93;;;5.27;;
6785;SDS011;3430;51.192;6.048;2024-02-21T10:49:24;7.33;;;4.73;;
6785;SDS011;3430;51.192;6.048;2024-02-21T10:51:50;10.80;;;4.83;;
6785;SDS011;3430;51.192;6.048;2024-02-21T10:56:56;7.73;;;5.03;;
6785;SDS011;3430;51.192;6.048;2024-02-21T10:59:22;8.43;;;5.13;;
6785;SDS011;3430;51.192;6.048;2024-02-21T11:01:48;7.40;;;5.13;;
6785;SDS011;3430;51.192;6.048;2024-02-21T11:04:14;7.43;;;4.87;;
6785;SDS011;3430;51.192;6.048;2024-02-21T11:06:40;9.60;;;4.70;;
6785;SDS011;3430;51.192;6.048;2024-02-21T11:09:07;12.17;;;5.80;;
6785;SDS011;3430;51.192;6.048;2024-02-21T11:11:33;8.07;;;4.90;;
6785;SDS011;3430;51.192;6.048;2024-02-21T11:14:08;7.60;;;5.30;;
6785;SDS011;3430;51.192;6.048;2024-02-21T11:16:37;7.17;;;5.20;;
6785;SDS011;3430;51.192;6.048;2024-02-21T11:19:06;7.63;;;4.70;;
6785;SDS011;3430;51.192;6.048;2024-02-21T11:21:35;8.60;;;4.70;;
6785;SDS011;3430;51.192;6.048;2024-02-21T11:24:02;7.00;;;5.13;;
6785;SDS011;3430;51.192;6.048;2024-02-21T11:26:27;9.43;;;5.57;;
6785;SDS011;3430;51.192;6.048;2024-02-21T11:29:00;6.67;;;5.37;;
6785;SDS011;3430;51.192;6.048;2024-02-21T11:31:25;8.67;;;4.93;;
6785;SDS011;3430;51.192;6.048;2024-02-21T11:33:54;5.60;;;4.40;;
6785;SDS011;3430;51.192;6.048;2024-02-21T11:36:26;8.77;;;4.83;;
6785;SDS011;3430;51.192;6.048;2024-02-21T11:38:51;6.77;;;5.07;;
6785;SDS011;3430;51.192;6.048;2024-02-21T11:41:18;9.53;;;5.17;;
6785;SDS011;3430;51.192;6.048;2024-02-21T11:43:43;8.03;;;5.10;;
6785;SDS011;3430;51.192;6.048;2024-02-21T11:46:09;8.97;;;5.10;;
6785;SDS011;3430;51.192;6.048;2024-02-21T11:48:34;7.47;;;4.93;;
6785;SDS011;3430;51.192;6.048;2024-02-21T11:50:59;6.73;;;4.87;;
6785;SDS011;3430;51.192;6.048;2024-02-21T11:53:26;8.83;;;4.80;;
6785;SDS011;3430;51.192;6.048;2024-02-21T11:55:55;8.60;;;4.77;;
6785;SDS011;3430;51.192;6.048;2024-02-21T11:58:21;9.67;;;4.73;;
6785;SDS011;3430;51.192;6.048;2024-02-21T12:00:47;5.33;;;4.77;;
6785;SDS011;3430;51.192;6.048;2024-02-21T12:03:13;6.43;;;4.93;;
6785;SDS011;3430;51.192;6.048;2024-02-21T12:05:38;7.13;;;5.27;;
6785;SDS011;3430;51.192;6.048;2024-02-21T12:08:04;5.30;;;4.67;;
6785;SDS011;3430;51.192;6.048;2024-02-21T12:10:31;6.77;;;5.00;;
6785;SDS011;3430;51.192;6.048;2024-02-21T12:13:08;6.57;;;5.00;;
6785;SDS011;3430;51.192;6.048;2024-02-21T12:15:33;8.57;;;5.20;;
6785;SDS011;3430;51.192;6.048;2024-02-21T12:17:59;8.67;;;5.07;;
6785;SDS011;3430;51.192;6.048;2024-02-21T12:20:25;6.53;;;4.90;;
6785;SDS011;3430;51.192;6.048;2024-02-21T12:22:50;8.83;;;5.03;;
6785;SDS011;3430;51.192;6.048;2024-02-21T12:25:17;8.17;;;4.93;;
6785;SDS011;3430;51.192;6.048;2024-02-21T12:27:47;7.13;;;4.80;;
6785;SDS011;3430;51.192;6.048;2024-02-21T12:30:14;7.77;;;5.23;;
6785;SDS011;3430;51.192;6.048;2024-02-21T12:32:39;6.43;;;5.23;;
6785;SDS011;3430;51.192;6.048;2024-02-21T12:35:06;6.67;;;4.77;;
6785;SDS011;3430;51.192;6.048;2024-02-21T12:37:31;8.50;;;5.47;;
6785;SDS011;3430;51.192;6.048;2024-02-21T12:39:58;6.80;;;4.87;;
6785;SDS011;3430;51.192;6.048;2024-02-21T12:42:23;6.10;;;5.10;;
6785;SDS011;3430;51.192;6.048;2024-02-21T12:44:48;7.13;;;4.43;;
6785;SDS011;3430;51.192;6.048;2024-02-21T12:47:14;6.40;;;4.67;;
6785;SDS011;3430;51.192;6.048;2024-02-21T12:49:39;5.97;;;4.70;;
6785;SDS011;3430;51.192;6.048;2024-02-21T12:52:05;7.83;;;5.17;;
6785;SDS011;3430;51.192;6.048;2024-02-21T12:54:30;5.50;;;4.77;;
6785;SDS011;3430;51.192;6.048;2024-02-21T12:56:59;7.07;;;5.03;;
6785;SDS011;3430;51.192;6.048;2024-02-21T12:59:27;5.83;;;5.10;;
6785;SDS011;3430;51.192;6.048;2024-02-21T13:01:53;8.87;;;5.03;;
6785;SDS011;3430;51.192;6.048;2024-02-21T13:04:18;10.27;;;5.07;;
6785;SDS011;3430;51.192;6.048;2024-02-21T13:06:44;7.43;;;4.80;;
6785;SDS011;3430;51.192;6.048;2024-02-21T13:09:10;7.07;;;4.80;;
6785;SDS011;3430;51.192;6.048;2024-02-21T13:11:36;7.43;;;5.07;;
6785;SDS011;3430;51.192;6.048;2024-02-21T13:14:05;7.07;;;5.60;;
6785;SDS011;3430;51.192;6.048;2024-02-21T13:16:30;7.87;;;5.37;;
6785;SDS011;3430;51.192;6.048;2024-02-21T13:18:56;8.13;;;5.23;;
6785;SDS011;3430;51.192;6.048;2024-02-21T13:21:21;7.30;;;5.10;;
6785;SDS011;3430;51.192;6.048;2024-02-21T13:23:47;7.37;;;5.17;;
6785;SDS011;3430;51.192;6.048;2024-02-21T13:26:12;7.70;;;5.27;;
6785;SDS011;3430;51.192;6.048;2024-02-21T13:28:39;6.73;;;5.23;;
6785;SDS011;3430;51.192;6.048;2024-02-21T13:31:04;9.30;;;5.20;;
6785;SDS011;3430;51.192;6.048;2024-02-21T13:33:33;8.33;;;5.63;;
6785;SDS011;3430;51.192;6.048;2024-02-21T13:35:58;8.20;;;5.27;;
6785;SDS011;3430;51.192;6.048;2024-02-21T13:38:24;6.87;;;4.83;;
6785;SDS011;3430;51.192;6.048;2024-02-21T13:40:49;6.10;;;4.93;;
6785;SDS011;3430;51.192;6.048;2024-02-21T13:43:15;10.07;;;5.57;;
6785;SDS011;3430;51.192;6.048;2024-02-21T13:45:41;7.13;;;5.00;;
6785;SDS011;3430;51.192;6.048;2024-02-21T13:48:14;11.53;;;5.73;;
6785;SDS011;3430;51.192;6.048;2024-02-21T13:50:39;6.87;;;5.53;;
6785;SDS011;3430;51.192;6.048;2024-02-21T13:53:08;9.60;;;5.10;;
6785;SDS011;3430;51.192;6.048;2024-02-21T13:55:35;8.03;;;4.90;;
6785;SDS011;3430;51.192;6.048;2024-02-21T13:58:00;7.83;;;5.03;;
6785;SDS011;3430;51.192;6.048;2024-02-21T14:00:25;9.27;;;5.10;;
6785;SDS011;3430;51.192;6.048;2024-02-21T14:02:52;7.70;;;5.33;;
6785;SDS011;3430;51.192;6.048;2024-02-21T14:05:17;5.77;;;4.83;;
6785;SDS011;3430;51.192;6.048;2024-02-21T14:07:43;6.20;;;4.47;;
6785;SDS011;3430;51.192;6.048;2024-02-21T14:10:08;8.47;;;5.10;;
6785;SDS011;3430;51.192;6.048;2024-02-21T14:12:34;8.83;;;5.27;;
6785;SDS011;3430;51.192;6.048;2024-02-21T14:15:00;5.93;;;5.20;;
6785;SDS011;3430;51.192;6.048;2024-02-21T14:17:25;6.27;;;5.20;;
6785;SDS011;3430;51.192;6.048;2024-02-21T14:19:53;6.90;;;4.97;;
6785;SDS011;3430;51.192;6.048;2024-02-21T14:22:18;5.90;;;5.00;;
6785;SDS011;3430;51.192;6.048;2024-02-21T14:24:43;6.40;;;5.27;;
6785;SDS011;3430;51.192;6.048;2024-02-21T14:27:09;7.10;;;5.80;;
6785;SDS011;3430;51.192;6.048;2024-02-21T14:29:34;10.07;;;6.67;;
6785;SDS011;3430;51.192;6.048;2024-02-21T14:31:59;7.93;;;5.50;;
6785;SDS011;3430;51.192;6.048;2024-02-21T14:34:25;6.97;;;5.23;;
6785;SDS011;3430;51.192;6.048;2024-02-21T14:36:51;7.70;;;5.40;;
6785;SDS011;3430;51.192;6.048;2024-02-21T14:39:16;6.37;;;5.13;;
6785;SDS011;3430;51.192;6.048;2024-02-21T14:41:42;8.47;;;5.57;;
6785;SDS011;3430;51.192;6.048;2024-02-21T14:44:08;7.97;;;5.60;;
6785;SDS011;3430;51.192;6.048;2024-02-21T14:46:35;7.33;;;6.00;;
6785;SDS011;3430;51.192;6.048;2024-02-21T14:49:00;7.47;;;5.40;;
6785;SDS011;3430;51.192;6.048;2024-02-21T14:51:25;5.33;;;4.83;;
6785;SDS011;3430;51.192;6.048;2024-02-21T14:53:51;7.13;;;5.43;;
6785;SDS011;3430;51.192;6.048;2024-02-21T14:56:16;7.07;;;6.07;;
6785;SDS011;3430;51.192;6.048;2024-02-21T14:58:42;7.33;;;5.70;;
6785;SDS011;3430;51.192;6.048;2024-02-21T15:01:08;7.00;;;5.23;;
6785;SDS011;3430;51.192;6.048;2024-02-21T15:03:33;7.73;;;5.27;;
6785;SDS011;3430;51.192;6.048;2024-02-21T15:05:59;11.10;;;5.20;;
6785;SDS011;3430;51.192;6.048;2024-02-21T15:08:25;6.07;;;4.60;;
6785;SDS011;3430;51.192;6.048;2024-02-21T15:10:52;9.07;;;5.33;;